Priozersk, Russia
Current Conditions -  °F | °C
As of 7:20 PM on Saturday 25 Oct 2014 (Local Time) from EFLP Reporting Station
Clear Clear  
Wind Chill: 31°   Ceiling: Unl
Heat Index: 36°   Visibility: 6mi
Dew Point: 27°   Wind: 6mph
Humidity: 70%   Direction: 190°S
Pressure: 30.21"   Gusts: NA
Location:  61.04°N, 30.14°E
Report Text: EFLP 251620Z 19005KT 130V230 CAVOK 02/M03 Q1023
Loading
Personal Weather Stations






























Interactive Weather Map
Tropical Storm Tracking
New forecast layout! Learn more

10-Day Weather Forecast

Advertisements
Track Severe Weather on mobile